• Join FlightAware (Why Join?)
  • Login
  • US Flag 
08:45AM EDT


 

Airport Tracker/Info


-or-


 

Live Flight TrackerFlight Track Log ✈ WEW1540 ✈ 06-May-2013 ✈ CYKY - CYYN

Flight Track Log - Related Links

Times and Time Zones

All times are in EDT time to prevent confusion due to time zone crossing. See the WEW1540 flight status page for this flight to view local times or setup timezone preferences in your user account.

Time Position Orientation Groundspeed Altitude Reporting Facility
EDT Latitude Longitude Course Direction KTS MPH feet Rate Location/Type
07:12PM 51.1021 -108.6642 142° Southeast  Level Estimated
07:13PM 51.0673 -108.6216 142° Southeast  Level Estimated
07:14PM 51.0326 -108.5790 142° Southeast  Level Estimated
07:15PM 50.9979 -108.5365 142° Southeast  Level Estimated
07:16PM 50.9631 -108.4941 142° Southeast  Level Estimated
07:17PM 50.9283 -108.4517 142° Southeast  Level Estimated
07:18PM 50.8935 -108.4094 143° Southeast  Level Estimated
07:19PM 50.8587 -108.3671 143° Southeast  Level Estimated
07:20PM 50.8239 -108.3250 143° Southeast  Level Estimated
07:21PM 50.7890 -108.2828 143° Southeast  Level Estimated
07:22PM 50.7542 -108.2408 143° Southeast  Level Estimated
07:23PM 50.7193 -108.1988 143° Southeast  Level Estimated
07:24PM 50.6844 -108.1568 143° Southeast  Level Estimated
07:25PM 50.6495 -108.1150 143° Southeast  Level Estimated
07:26PM 50.6146 -108.0732 143° Southeast  Level Estimated
07:27PM 50.5797 -108.0314 143° Southeast  Level Estimated
07:28PM 50.5447 -107.9897 143° Southeast  Level Estimated
07:29PM 50.5098 -107.9481 143° Southeast  Level Estimated
07:30PM 50.4748 -107.9065 143° Southeast  Level Estimated
07:31PM 50.4398 -107.8650 143° Southeast  Level Estimated
07:32PM 50.4048 -107.8236 143° Southeast  Level Estimated
07:33PM 50.3698 -107.7822 143° Southeast  Level Estimated
07:34PM 50.3347 -107.7409 143° Southeast  Level Estimated
07:35PM 50.2997 -107.6996 143° Southeast  Level Estimated
07:36PM 50.2919 -107.6906 143° Southeast  Level Estimated
07:37PM 50.2919 -107.6906 33° Northeast  Level Estimated
07:38PM 50.2919 -107.6906 33° Northeast  Level Estimated
07:39PM 50.2919 -107.6906 33° Northeast  Level Estimated
07:40PM 50.2919 -107.6906 33° Northeast  Level Estimated
07:41PM 50.2919 -107.6906 33° Northeast  Level Estimated
07:42PM 50.2919 -107.6906 33° Northeast  Level Estimated
07:43PM 50.2919 -107.6906 33° Northeast  Level Estimated
07:44PM 50.2919 -107.6906 33° Northeast  Level Estimated
07:45PM 50.2919 -107.6906 33° Northeast  Level Estimated
07:46PM 50.2919 -107.6906 33° Northeast  Level Estimated